Data for 09/30/2009

Time Sea-Level Adjusted Pressure Absolute Pressure Temperature Relative Humidity Dew Point   
(mb) (inHg) (mb) (inHg) (C) (F) (%) (C) (F)
00:05 1006 29.71 836 24.69 13.7 56.6 43 1.4 34.5
00:10 1006 29.71 836 24.69 13.5 56.3 43 1.3 34.4
00:15 1006 29.71 836 24.69 13.3 56 44 1.5 34.7
00:20 1007 29.74 836 24.69 13.2 55.7 45 1.5 34.7
00:25 1007 29.74 836 24.69 13.1 55.5 45 1.4 34.5
00:30 1007 29.74 836 24.69 13 55.4 45 1.5 34.7
00:35 1007 29.74 836 24.69 12.9 55.3 45 1.3 34.4
00:40 1007 29.74 836 24.69 12.8 55.1 45 1.2 34.2
00:45 1007 29.74 836 24.69 12.7 54.8 46 1.4 34.5
00:50 1007 29.74 836 24.69 12.5 54.5 46 1.3 34.3
00:55 1007 29.74 837 24.72 12.4 54.3 47 1.4 34.5
01:00 1007 29.74 837 24.72 12.3 54.2 47 1.3 34.3
01:05 1007 29.74 837 24.72 12.2 54 45 0.8 33.5
01:10 1007 29.74 836 24.69 12.1 53.8 46 0.8 33.4
01:15 1007 29.74 836 24.69 12 53.5 46 0.7 33.3
01:20 1007 29.74 836 24.69 11.6 52.9 47 0.8 33.4
01:25 1007 29.74 837 24.72 11.5 52.7 47 0.6 33.1
01:30 1007 29.74 837 24.72 11.4 52.6 48 0.8 33.4
01:35 1008 29.77 837 24.72 11.2 52.1 49 0.8 33.4
01:40 1008 29.77 837 24.72 11 51.8 49 0.7 33.3
01:45 1008 29.77 837 24.72 10.8 51.5 49 0.7 33.3
01:50 1008 29.77 837 24.72 10.8 51.4 50 0.9 33.6
01:55 1008 29.77 837 24.72 10.8 51.4 50 0.9 33.6
02:00 1008 29.77 837 24.72 10.7 51.2 55 2 35.6
02:05 1008 29.77 837 24.72 10.6 51 57 2.4 36.3
02:10 1008 29.77 837 24.72 10.4 50.7 58 2.6 36.6
02:15 1008 29.77 837 24.72 10.2 50.3 59 2.5 36.5
02:20 1008 29.77 837 24.72 10 49.9 59 2.5 36.4
02:25 1008 29.77 837 24.72 9.8 49.7 61 2.6 36.8
02:30 1008 29.77 837 24.72 9.7 49.5 61 2.5 36.5
02:35 1008 29.77 837 24.72 9.5 49.1 62 2.6 36.7
02:40 1008 29.77 838 24.75 9 48.1 65 2.7 36.8
02:45 1008 29.77 838 24.75 8.6 47.5 67 2.9 37.2
02:50 1008 29.77 838 24.75 8.2 46.7 70 3.1 37.5
02:55 1008 29.77 838 24.75 7.7 45.9 73 3.3 37.9
03:00 1008 29.77 838 24.75 7.3 45.2 75 3.2 37.7
03:05 1008 29.77 838 24.75 7.1 44.8 77 3.3 37.9
03:10 1008 29.77 838 24.75 7 44.7 77 3.4 38.1
03:15 1009 29.8 838 24.75 6.8 44.3 78 3.3 38
03:20 1009 29.8 838 24.75 6.7 44 79 3.2 37.8
03:25 1008 29.77 838 24.75 6.6 43.9 79 3.2 37.8
03:30 1008 29.77 838 24.75 6.5 43.7 79 3.2 37.7
03:35 1008 29.77 838 24.75 6.5 43.6 79 3.1 37.6
03:40 1008 29.77 838 24.75 6.4 43.6 79 3 37.4
03:45 1009 29.8 838 24.75 6.3 43.4 79 3 37.5
03:50 1009 29.8 838 24.75 6.4 43.5 79 2.9 37.3
03:55 1009 29.8 838 24.75 6.3 43.4 78 2.8 37.1
04:00 1009 29.8 838 24.75 6.2 43.2 80 3 37.4
04:05 1009 29.8 838 24.75 6.2 43.1 80 3 37.5
04:10 1009 29.8 838 24.75 6.1 43 80 3 37.4
04:15 1009 29.8 838 24.75 6.1 42.9 81 3 37.4
04:20 1009 29.8 838 24.75 6.1 42.9 81 3.1 37.6
04:25 1009 29.8 838 24.75 6 42.8 81 3 37.4
04:30 1009 29.8 838 24.75 5.9 42.6 83 3.2 37.7
04:35 1009 29.8 838 24.75 5.8 42.5 83 3.2 37.8
04:40 1009 29.8 838 24.75 5.7 42.2 84 3.2 37.8
04:45 1009 29.8 838 24.75 5.3 41.6 87 3.3 37.9
04:50 1009 29.8 838 24.75 5 41.1 87 3.1 37.6
04:55 1009 29.8 839 24.78 4.9 40.9 87 2.9 37.3
05:00 1009 29.8 839 24.78 4.9 40.8 87 2.9 37.2
05:05 1009 29.8 839 24.78 4.8 40.6 88 2.9 37.2
05:10 1009 29.8 839 24.78 4.7 40.4 88 2.8 37
05:15 1010 29.83 839 24.78 4.6 40.3 88 2.8 37
05:20 1010 29.83 839 24.78 4.4 39.9 88 2.7 36.8
05:25 1010 29.83 839 24.78 4.2 39.5 90 2.6 36.7
05:30 1010 29.83 839 24.78 4 39.2 90 2.5 36.5
05:35 1009 29.8 839 24.78 4 39.2 91 2.7 36.9
05:40 1010 29.83 839 24.78 4 39.2 91 2.7 36.9
05:45 1010 29.83 839 24.78 3.9 39.1 91 2.7 36.8
05:50 1010 29.83 839 24.78 3.8 38.8 92 2.5 36.6
05:55 1010 29.83 839 24.78 3.7 38.7 91 2.4 36.4
06:00 1010 29.83 839 24.78 3.7 38.7 91 2.4 36.3
06:05 1010 29.83 839 24.78 3.8 38.8 91 2.5 36.5
06:10 1010 29.83 839 24.78 3.8 38.8 92 2.5 36.5
06:15 1010 29.83 839 24.78 3.7 38.7 92 2.6 36.7
06:20 1010 29.83 839 24.78 3.6 38.5 93 2.5 36.5
06:25 1010 29.83 839 24.78 3.5 38.3 93 2.4 36.4
06:30 1010 29.83 839 24.78 3.4 38 94 2.4 36.4
06:35 1010 29.83 839 24.78 3.3 37.9 93 2.3 36.2
06:40 1010 29.83 839 24.78 3.3 37.9 94 2.4 36.3
06:45 1010 29.83 839 24.78 3.2 37.8 93 2.3 36.1
06:50 1010 29.83 839 24.78 3.2 37.7 94 2.3 36.1
06:55 1010 29.83 839 24.78 3.1 37.5 95 2.3 36.1
07:00 1010 29.83 840 24.81 3 37.4 94 2.2 36
07:05 1010 29.83 840 24.81 3 37.3 95 2.2 36
07:10 1010 29.83 840 24.81 2.9 37.2 95 2.1 35.8
07:15 1010 29.83 840 24.81 2.7 36.9 95 2.1 35.7
07:20 1010 29.83 840 24.81 2.6 36.8 95 1.9 35.5
07:25 1011 29.85 840 24.81 2.5 36.4 95 1.7 35.1
07:30 1011 29.85 840 24.81 2.1 35.9 95 1.4 34.6
07:35 1011 29.85 840 24.81 1.8 35.3 95 1.2 34.1
07:40 1011 29.85 840 24.81 1.6 34.8 96 0.9 33.7
07:45 1011 29.85 840 24.81 1.3 34.3 96 0.6 33.2
07:50 1011 29.85 840 24.81 1 33.7 96 0.4 32.7
07:55 1011 29.85 840 24.81 0.7 33.3 97 0.3 32.5
08:00 1012 29.88 841 24.83 0.6 33.1 97 0.2 32.3
08:05 1012 29.88 841 24.83 0.5 32.8 97 0.1 32.2
08:10 1012 29.88 841 24.83 0.5 32.8 97 0.1 32.2
08:15 1012 29.88 841 24.83 0.4 32.7 98 0 32.1
08:20 1012 29.88 841 24.83 0.4 32.8 98 0.1 32.2
08:25 1012 29.88 841 24.83 0.4 32.8 98 0.1 32.2
08:30 1012 29.88 841 24.83 0.5 32.9 98 0.2 32.4
08:35 1012 29.88 841 24.83 0.6 33.1 97 0.2 32.4
08:40 1012 29.88 841 24.83 0.6 33 98 0.2 32.4
08:45 1012 29.88 841 24.83 0.6 33.1 97 0.2 32.4
08:50 1012 29.88 841 24.83 0.6 33 97 0.2 32.3
08:55 1012 29.88 841 24.83 0.5 32.9 97 0.1 32.3
09:00 1012 29.88 842 24.86 0.5 32.9 98 0.1 32.3
09:05 1012 29.88 842 24.86 0.6 33 97 0.2 32.4
09:10 1012 29.88 842 24.86 0.6 33 97 0.2 32.4
09:15 1012 29.88 842 24.86 0.6 33 97 0.2 32.3
09:20 1013 29.91 842 24.86 0.5 33 97 0.2 32.3
09:25 1013 29.91 842 24.86 0.6 33.1 98 0.2 32.4
09:30 1013 29.91 842 24.86 0.6 33.1 97 0.2 32.4
09:35 1013 29.91 842 24.86 0.6 33 97 0.1 32.2
09:40 1012 29.88 842 24.86 0.5 33 97 0.1 32.2
09:45 1012 29.88 842 24.86 0.6 33 97 0.1 32.3
09:50 1013 29.91 842 24.86 0.5 32.9 97 0.1 32.2
09:55 1013 29.91 842 24.86 0.5 33 97 0.1 32.2
10:00 1013 29.91 842 24.86 0.6 33.1 97 0.2 32.3
10:05 1013 29.91 842 24.86 0.6 33.2 97 0.2 32.3
10:10 1013 29.91 842 24.86 0.6 33.1 97 0.2 32.3
10:15 1013 29.91 842 24.86 0.7 33.2 96 0.2 32.3
10:20 1013 29.91 842 24.86 0.7 33.2 96 0.2 32.3
10:25 1013 29.91 842 24.86 0.7 33.2 96 0.1 32.3
10:30 1013 29.91 842 24.86 0.7 33.2 96 0.2 32.3
10:35 1013 29.91 842 24.86 0.8 33.4 96 0.2 32.4
10:40 1013 29.91 842 24.86 0.8 33.5 96 0.2 32.3
10:45 1013 29.91 842 24.86 0.7 33.2 96 0.2 32.3
10:50 1013 29.91 842 24.86 0.8 33.4 96 0.2 32.4
10:55 1013 29.91 842 24.86 0.8 33.5 96 0.3 32.5
11:00 1013 29.91 842 24.86 0.8 33.5 96 0.3 32.5
11:05 1013 29.91 842 24.86 0.8 33.4 96 0.2 32.4
11:10 1013 29.91 842 24.86 0.8 33.4 96 0.2 32.4
11:15 1013 29.91 842 24.86 0.7 33.3 96 0.2 32.4
11:20 1013 29.91 842 24.86 0.7 33.2 97 0.2 32.4
11:25 1013 29.91 842 24.86 0.7 33.3 96 0.2 32.4
11:30 1013 29.91 842 24.86 0.9 33.5 96 0.3 32.6
11:35 1013 29.91 842 24.86 0.9 33.6 96 0.3 32.6
11:40 1013 29.91 842 24.86 1 33.8 96 0.3 32.6
11:45 1013 29.91 842 24.86 1 33.7 96 0.3 32.6
11:50 1013 29.91 843 24.89 0.8 33.5 96 0.2 32.4
11:55 1013 29.91 843 24.89 0.8 33.5 96 0.2 32.4
12:00 1013 29.91 843 24.89 0.8 33.4 96 0.2 32.4
12:05 1013 29.91 843 24.89 0.7 33.3 96 0.2 32.3
12:10 1014 29.94 843 24.89 0.9 33.5 96 0.3 32.5
12:15 1014 29.94 843 24.89 1 33.7 96 0.3 32.6
12:20 1014 29.94 843 24.89 1 33.8 96 0.4 32.7
12:25 1014 29.94 843 24.89 1.2 34.2 95 0.4 32.8
12:30 1014 29.94 843 24.89 1.2 34.2 95 0.5 32.9
12:35 1014 29.94 843 24.89 1.4 34.5 94 0.5 32.9
12:40 1014 29.94 843 24.89 1.4 34.5 95 0.6 33.1
12:45 1014 29.94 843 24.89 1.3 34.4 94 0.5 33
12:50 1014 29.94 843 24.89 1.2 34.2 95 0.5 32.9
12:55 1014 29.94 843 24.89 1.3 34.4 94 0.5 32.9
13:00 1014 29.94 843 24.89 1.5 34.7 94 0.6 33.1
13:05 1014 29.94 843 24.89 1.5 34.8 94 0.6 33.1
13:10 1014 29.94 843 24.89 1.5 34.7 94 0.7 33.2
13:15 1014 29.94 843 24.89 1.4 34.6 94 0.6 33
13:20 1014 29.94 843 24.89 1.3 34.4 95 0.6 33
13:25 1014 29.94 843 24.89 1.2 34.2 95 0.4 32.8
13:30 1014 29.94 843 24.89 1.2 34.2 95 0.5 33
13:35 1014 29.94 843 24.89 1.1 34 94 0.3 32.6
13:40 1014 29.94 843 24.89 1 33.8 95 0.2 32.4
13:45 1014 29.94 843 24.89 1.1 33.9 95 0.4 32.7
13:50 1014 29.94 843 24.89 1.2 34.2 95 0.5 32.9
13:55 1014 29.94 843 24.89 1.3 34.3 95 0.6 33
14:00 1014 29.94 843 24.89 1.3 34.3 94 0.5 32.9
14:05 1014 29.94 843 24.89 1.3 34.3 95 0.5 32.9
14:10 1014 29.94 843 24.89 1.2 34.1 95 0.5 32.8
14:15 1014 29.94 843 24.89 1 33.7 96 0.3 32.6
14:20 1014 29.94 844 24.92 0.8 33.4 96 0.3 32.5
14:25 1014 29.94 844 24.92 0.8 33.4 96 0.3 32.5
14:30 1015 29.97 844 24.92 0.7 33.3 97 0.3 32.5
14:35 1015 29.97 844 24.92 0.8 33.5 97 0.3 32.6
14:40 1015 29.97 844 24.92 0.9 33.6 96 0.4 32.7
14:45 1015 29.97 844 24.92 0.9 33.7 96 0.4 32.7
14:50 1015 29.97 844 24.92 0.8 33.5 96 0.3 32.6
14:55 1015 29.97 844 24.92 0.8 33.4 97 0.3 32.5
15:00 1015 29.97 844 24.92 0.8 33.4 97 0.3 32.6
15:05 1015 29.97 844 24.92 0.9 33.6 97 0.4 32.8
15:10 1015 29.97 844 24.92 0.9 33.7 96 0.4 32.6
15:15 1015 29.97 844 24.92 0.7 33.3 97 0.3 32.6
15:20 1015 29.97 844 24.92 0.8 33.5 96 0.3 32.6
15:25 1015 29.97 844 24.92 1 33.8 97 0.5 32.9
15:30 1015 29.97 844 24.92 1.4 34.5 96 0.9 33.6
15:35 1015 29.97 844 24.92 1.8 35.2 96 1.1 34.1
15:40 1015 29.97 844 24.92 1.9 35.4 95 1.2 34.2
15:45 1015 29.97 844 24.92 2 35.5 95 1.2 34.2
15:50 1015 29.97 845 24.95 2.1 35.7 95 1.3 34.3
15:55 1016 30 845 24.95 2.1 35.7 94 1.3 34.3
16:00 1016 30 845 24.95 2.2 35.9 95 1.4 34.6
16:05 1016 30 845 24.95 2.3 36.1 95 1.6 34.8
16:10 1016 30 845 24.95 2.1 35.8 95 1.4 34.4
16:15 1016 30 845 24.95 2.1 35.7 95 1.4 34.5
16:20 1016 30 845 24.95 2.1 35.8 93 1.2 34.1
16:25 1016 30 845 24.95 1.7 35.1 94 0.9 33.6
16:30 1016 30 845 24.95 1.5 34.8 95 0.9 33.6
16:35 1016 30 845 24.95 1.7 35 95 1 33.8
16:40 1016 30 845 24.95 1.9 35.4 95 1.2 34.2
16:45 1016 30 846 24.98 2.1 35.7 95 1.3 34.3
16:50 1016 30 846 24.98 2.1 35.7 95 1.3 34.3
16:55 1017 30.03 846 24.98 2 35.7 95 1.3 34.3
17:00 1017 30.03 846 24.98 2 35.6 95 1.2 34.2
17:05 1017 30.03 846 24.98 2.1 35.8 94 1.3 34.3
17:10 1017 30.03 846 24.98 2.1 35.7 94 1.2 34.2
17:15 1017 30.03 846 24.98 2 35.7 95 1.3 34.3
17:20 1017 30.03 846 24.98 2 35.6 94 1.2 34.2
17:25 1017 30.03 846 24.98 2 35.6 94 1.2 34.1
17:30 1017 30.03 846 24.98 2 35.5 94 1.1 34
17:35 1017 30.03 846 24.98 1.9 35.4 95 1.2 34.1
17:40 1017 30.03 847 25.01 1.9 35.5 95 1.1 34.1
17:45 1017 30.03 847 25.01 1.8 35.3 94 1 33.8
17:50 1017 30.03 847 25.01 1.8 35.2 94 1 33.7
17:55 1018 30.06 847 25.01 1.6 35 94 0.8 33.5
18:00 1018 30.06 847 25.01 1.3 34.3 95 0.5 32.9
18:05 1018 30.06 847 25.01 1 33.8 95 0.4 32.7
18:10 1018 30.06 847 25.01 1 33.8 96 0.5 32.9
18:15 1018 30.06 847 25.01 1.2 34.2 97 0.7 33.3
18:20 1018 30.06 847 25.01 1.4 34.6 96 0.8 33.5
18:25 1018 30.06 847 25.01 1.3 34.4 95 0.7 33.2
18:30 1018 30.06 847 25.01 1.1 34 96 0.5 33
18:35 1018 30.06 847 25.01 1 33.7 96 0.4 32.8
18:40 1018 30.06 848 25.04 0.8 33.4 97 0.3 32.6
18:45 1018 30.06 848 25.04 0.6 33.2 97 0.3 32.5
18:50 1018 30.06 848 25.04 0.6 33.2 97 0.3 32.5
18:55 1018 30.06 848 25.04 0.7 33.2 97 0.3 32.6
19:00 1018 30.06 848 25.04 0.7 33.3 97 0.3 32.6
19:05 1019 30.09 848 25.04 0.7 33.3 97 0.3 32.6
19:10 1019 30.09 848 25.04 0.6 33.1 97 0.3 32.5
19:15 1019 30.09 848 25.04 0.6 33 97 0.2 32.4
19:20 1019 30.09 848 25.04 0.6 33 98 0.3 32.5
19:25 1019 30.09 848 25.04 0.6 33.1 98 0.2 32.4
19:30 1019 30.09 848 25.04 0.7 33.2 98 0.3 32.6
19:35 1019 30.09 848 25.04 0.9 33.6 97 0.5 32.9
19:40 1019 30.09 848 25.04 1.1 34 97 0.6 33.1
19:45 1019 30.09 848 25.04 1.3 34.3 96 0.7 33.3
19:50 1019 30.09 848 25.04 1.5 34.6 96 0.9 33.6
19:55 1019 30.09 848 25.04 1.6 34.9 96 1 33.8
20:00 1019 30.09 848 25.04 1.7 35.1 95 1.1 33.9
20:05 1019 30.09 848 25.04 1.9 35.4 95 1.1 34
20:10 1019 30.09 848 25.04 2 35.5 94 1.1 34
20:15 1019 30.09 848 25.04 1.9 35.5 94 1.1 34
20:20 1019 30.09 848 25.04 1.9 35.4 94 1.1 33.9
20:25 1019 30.09 848 25.04 1.8 35.3 95 1 33.9
20:30 1019 30.09 849 25.07 1.8 35.2 95 1 33.8
20:35 1019 30.09 849 25.07 1.8 35.2 95 1 33.8
20:40 1019 30.09 849 25.07 1.7 35.1 95 1 33.8
20:45 1020 30.12 849 25.07 1.7 35.1 95 0.9 33.7
20:50 1020 30.12 849 25.07 1.8 35.2 95 1 33.7
20:55 1020 30.12 849 25.07 1.7 35.1 94 0.9 33.6
21:00 1020 30.12 849 25.07 1.7 35 94 0.8 33.5
21:05 1020 30.12 849 25.07 1.7 35.1 94 0.9 33.5
21:10 1020 30.12 849 25.07 1.7 35.1 93 0.7 33.3
21:15 1020 30.12 849 25.07 1.7 35.1 94 0.8 33.4
21:20 1020 30.12 849 25.07 1.7 35 94 0.8 33.4
21:25 1020 30.12 849 25.07 1.7 35 94 0.8 33.5
21:30 1020 30.12 849 25.07 1.7 35 95 0.9 33.6
21:35 1020 30.12 849 25.07 1.6 34.9 95 0.9 33.6
21:40 1020 30.12 849 25.07 1.6 34.9 95 0.9 33.5
21:45 1020 30.12 849 25.07 1.5 34.8 95 0.8 33.4
21:50 1020 30.12 849 25.07 1.4 34.6 95 0.7 33.2
21:55 1020 30.12 849 25.07 1.4 34.5 95 0.6 33.1
22:00 1020 30.12 850 25.1 1.3 34.4 95 0.6 33.1
22:05 1020 30.12 850 25.1 1.4 34.5 95 0.7 33.2
22:10 1020 30.12 850 25.1 1.5 34.7 95 0.7 33.3
22:15 1020 30.12 850 25.1 1.5 34.7 94 0.7 33.3
22:20 1021 30.15 850 25.1 1.6 34.8 94 0.8 33.4
22:25 1021 30.15 850 25.1 1.6 34.9 94 0.8 33.4
22:30 1021 30.15 850 25.1 1.6 34.9 94 0.7 33.3
22:35 1021 30.15 850 25.1 1.5 34.8 94 0.7 33.2
22:40 1021 30.15 850 25.1 1.4 34.6 94 0.6 33.1
22:45 1021 30.15 850 25.1 1.4 34.6 94 0.6 33.1
22:50 1021 30.15 850 25.1 1.4 34.5 94 0.5 33
22:55 1021 30.15 850 25.1 1.3 34.4 94 0.5 32.9
23:00 1021 30.15 850 25.1 1.3 34.4 94 0.4 32.8
23:05 1021 30.15 850 25.1 1.4 34.5 93 0.4 32.8
23:10 1021 30.15 850 25.1 1.4 34.5 93 0.5 32.8
23:15 1021 30.15 850 25.1 1.3 34.3 93 0.3 32.6
23:20 1021 30.15 850 25.1 1.2 34.2 94 0.4 32.6
23:25 1021 30.15 850 25.1 1.4 34.5 93 0.4 32.8
23:30 1021 30.15 850 25.1 1.4 34.5 93 0.4 32.6
23:35 1021 30.15 850 25.1 1.5 34.7 92 0.4 32.7
23:40 1021 30.15 850 25.1 1.4 34.6 93 0.4 32.8
23:45 1021 30.15 850 25.1 1.5 34.7 93 0.5 32.8
23:50 1021 30.15 850 25.1 1.6 34.8 93 0.5 32.9
23:55 1021 30.15 850 25.1 1.6 34.8 93 0.5 33
24:00 1021 30.15 850 25.1 1.6 34.9 91 0.3 32.6